Time;durP1;ratioP1;P1;durP2;ratioP2;P2;SDS_P1;SDS_P2;PMS_P1;PMS_P2;Temp;Humidity;BMP_temperature;BMP_pressure;BME280_temperature;BME280_humidity;BME280_pressure;Samples;Min_cycle;Max_cycle;Signal;HPM_P1;HPM_P2
2024/01/22 00:00:12;;;;;;;33.22;17.63;;;;;;;-0.67;97.19;100674.31;5016472;28;20095;-86
2024/01/22 00:02:40;;;;;;;36.45;18.45;;;;;;;-0.67;97.39;100675.16;5029502;28;20046;-87
2024/01/22 00:05:09;;;;;;;37.30;19.15;;;;;;;-0.66;97.13;100673.44;5040452;28;25048;-86
2024/01/22 00:07:36;;;;;;;36.90;16.65;;;;;;;-0.66;97.55;100679.50;4985865;28;20037;-87
2024/01/22 00:10:04;;;;;;;32.35;17.38;;;;;;;-0.65;97.79;100677.72;5060057;28;20037;-86
2024/01/22 00:12:31;;;;;;;35.22;18.60;;;;;;;-0.65;97.91;100680.34;5036037;28;20198;-87
2024/01/22 00:14:58;;;;;;;40.08;21.33;;;;;;;-0.66;98.06;100679.50;5022136;28;20038;-87
2024/01/22 00:17:25;;;;;;;46.55;21.73;;;;;;;-0.64;97.63;100674.22;5031864;28;20041;-86
2024/01/22 00:19:52;;;;;;;41.80;19.55;;;;;;;-0.66;97.50;100666.44;5034332;28;20041;-86
2024/01/22 00:22:18;;;;;;;39.60;21.13;;;;;;;-0.64;97.73;100652.50;5004341;28;20041;-86
2024/01/22 00:24:45;;;;;;;35.72;19.60;;;;;;;-0.64;97.82;100637.69;5029326;28;20087;-86
2024/01/22 00:27:12;;;;;;;39.97;21.45;;;;;;;-0.62;97.83;100637.66;5008029;28;20651;-86
2024/01/22 00:29:39;;;;;;;45.45;20.23;;;;;;;-0.62;97.91;100619.41;5028578;28;20053;-86
2024/01/22 00:32:06;;;;;;;40.90;19.52;;;;;;;-0.63;97.87;100615.94;5031991;28;20048;-86
2024/01/22 00:34:33;;;;;;;43.03;20.15;;;;;;;-0.61;97.98;100616.75;5033820;28;20068;-86
2024/01/22 00:36:59;;;;;;;38.53;19.05;;;;;;;-0.59;97.90;100603.66;5003835;28;20049;-87
2024/01/22 00:39:26;;;;;;;37.83;19.85;;;;;;;-0.58;98.38;100608.00;5067434;28;20047;-86
2024/01/22 00:41:53;;;;;;;45.97;22.98;;;;;;;-0.60;99.24;100608.03;5033925;28;20573;-86
2024/01/22 00:44:20;;;;;;;42.42;22.02;;;;;;;-0.60;99.10;100607.19;5021311;28;20052;-86
2024/01/22 00:46:46;;;;;;;40.90;21.30;;;;;;;-0.61;98.87;100598.50;5024540;28;20041;-86
2024/01/22 00:49:13;;;;;;;37.50;19.25;;;;;;;-0.62;98.69;100593.31;5013782;28;20068;-86
2024/01/22 00:51:40;;;;;;;38.10;18.75;;;;;;;-0.62;98.43;100606.34;5034398;28;20395;-86
2024/01/22 00:54:07;;;;;;;34.58;18.75;;;;;;;-0.66;98.61;100603.00;5004102;28;20059;-86
2024/01/22 00:56:33;;;;;;;37.40;18.20;;;;;;;-0.66;98.70;100610.81;5034830;28;20634;-86
2024/01/22 00:59:00;;;;;;;32.83;16.67;;;;;;;-0.68;98.47;100618.69;5031612;28;20048;-86
2024/01/22 01:01:30;;;;;;;37.35;18.30;;;;;;;-0.67;98.50;100614.31;5030133;28;20037;-86
2024/01/22 01:03:57;;;;;;;34.53;16.17;;;;;;;-0.68;98.60;100610.00;5019844;28;20061;-86
2024/01/22 01:06:24;;;;;;;31.00;17.02;;;;;;;-0.70;98.41;100604.81;5022761;28;20643;-86
2024/01/22 01:08:51;;;;;;;33.03;15.75;;;;;;;-0.70;98.33;100601.38;5029041;28;20048;-86
2024/01/22 01:11:18;;;;;;;31.05;16.17;;;;;;;-0.70;98.22;100601.38;5017676;28;20801;-86
2024/01/22 01:13:44;;;;;;;28.55;13.20;;;;;;;-0.71;98.06;100602.28;5023009;28;20515;-86
2024/01/22 01:16:11;;;;;;;30.20;14.07;;;;;;;-0.70;97.97;100590.94;5018115;28;20508;-86
2024/01/22 01:18:38;;;;;;;29.58;14.77;;;;;;;-0.71;98.14;100591.84;5032191;28;20057;-87
2024/01/22 01:21:05;;;;;;;26.30;14.65;;;;;;;-0.71;98.17;100586.63;4994132;28;20042;-86
2024/01/22 01:23:33;;;;;;;31.52;16.05;;;;;;;-0.72;98.28;100577.09;5030795;28;20053;-87
2024/01/22 01:26:00;;;;;;;26.00;15.00;;;;;;;-0.73;97.92;100578.00;5048255;28;20523;-86
2024/01/22 01:28:26;;;;;;;26.85;14.68;;;;;;;-0.73;97.84;100571.03;5035815;28;20041;-86
2024/01/22 01:30:53;;;;;;;27.88;14.52;;;;;;;-0.74;97.70;100568.44;5015764;28;20917;-87
2024/01/22 01:33:20;;;;;;;27.25;15.02;;;;;;;-0.76;98.47;100565.91;5028476;28;20065;-86
2024/01/22 01:35:47;;;;;;;29.25;14.82;;;;;;;-0.77;98.23;100568.53;5032404;28;20052;-87
2024/01/22 01:38:14;;;;;;;27.52;14.00;;;;;;;-0.78;98.13;100567.69;5015642;28;20056;-86
2024/01/22 01:40:41;;;;;;;28.23;13.93;;;;;;;-0.80;98.31;100572.09;5020675;28;20045;-86
2024/01/22 01:43:08;;;;;;;31.85;15.85;;;;;;;-0.77;98.12;100565.94;5016380;28;20041;-86
2024/01/22 01:45:35;;;;;;;31.10;14.98;;;;;;;-0.78;98.28;100572.06;5038111;28;20064;-86
2024/01/22 01:48:02;;;;;;;28.77;16.33;;;;;;;-0.80;98.55;100571.25;4990546;28;20790;-87
2024/01/22 01:50:29;;;;;;;33.97;18.25;;;;;;;-0.83;98.58;100572.19;5008055;28;20131;-86
2024/01/22 01:52:56;;;;;;;33.97;17.50;;;;;;;-0.83;98.84;100577.41;5019166;28;20043;-86
2024/01/22 01:55:23;;;;;;;40.10;19.25;;;;;;;-0.83;98.50;100580.03;5024999;28;20124;-87
2024/01/22 01:57:50;;;;;;;37.70;18.08;;;;;;;-0.83;98.55;100585.22;5025203;28;20061;-86
2024/01/22 02:00:26;;;;;;;27.17;13.93;;;;;;;-0.86;98.89;100590.53;5034784;28;20128;-87
2024/01/22 02:02:53;;;;;;;22.80;13.27;;;;;;;-0.89;99.19;100588.88;5007293;28;20046;-86
2024/01/22 02:05:20;;;;;;;24.13;12.63;;;;;;;-0.91;98.57;100585.47;5008170;28;20868;-87
2024/01/22 02:07:47;;;;;;;21.08;11.38;;;;;;;-0.92;98.91;100575.91;5042060;28;20536;-87
2024/01/22 02:10:14;;;;;;;18.02;9.57;;;;;;;-0.94;98.88;100569.03;5025681;28;20403;-87
2024/01/22 02:12:41;;;;;;;19.98;8.98;;;;;;;-0.93;98.57;100571.63;5020029;28;20858;-87
2024/01/22 02:15:08;;;;;;;15.98;8.88;;;;;;;-0.94;98.70;100563.81;5032298;28;20045;-87
2024/01/22 02:17:35;;;;;;;17.10;8.38;;;;;;;-0.94;98.50;100556.88;5050438;28;20048;-86
2024/01/22 02:20:03;;;;;;;15.52;7.20;;;;;;;-0.94;98.61;100541.25;5030079;28;20049;-87
2024/01/22 02:22:29;;;;;;;14.13;7.38;;;;;;;-0.93;98.39;100545.53;5025078;28;20124;-87
2024/01/22 02:24:57;;;;;;;17.55;7.13;;;;;;;-0.91;98.63;100559.38;5047466;28;20037;-86
2024/01/22 02:27:23;;;;;;;25.25;12.63;;;;;;;-0.90;98.97;100558.47;5037782;28;20065;-86
2024/01/22 02:29:50;;;;;;;29.73;14.75;;;;;;;-0.90;99.11;100552.41;5047488;28;20041;-87
2024/01/22 02:32:17;;;;;;;28.23;14.18;;;;;;;-0.90;99.30;100552.41;5008996;28;20055;-86
2024/01/22 02:34:44;;;;;;;26.75;14.55;;;;;;;-0.92;99.69;100543.78;5006759;28;20126;-87
2024/01/22 02:37:11;;;;;;;30.25;14.07;;;;;;;-0.95;99.57;100547.34;5025199;28;20052;-87
2024/01/22 02:39:37;;;;;;;27.75;13.88;;;;;;;-0.96;99.71;100544.78;5024240;28;20876;-87
2024/01/22 02:42:05;;;;;;;28.52;15.40;;;;;;;-0.95;99.75;100533.44;5015967;28;20481;-87
2024/01/22 02:44:34;;;;;;;31.45;15.50;;;;;;;-0.99;99.52;100526.59;5005611;28;20553;-87
2024/01/22 02:47:02;;;;;;;27.30;14.35;;;;;;;-0.98;99.45;100528.34;5023346;28;20037;-87
2024/01/22 02:49:29;;;;;;;22.35;12.95;;;;;;;-0.94;98.74;100509.06;5016629;28;20056;-87
2024/01/22 02:51:56;;;;;;;22.15;10.65;;;;;;;-0.96;98.98;100501.31;5031742;28;20069;-87
2024/01/22 02:54:23;;;;;;;17.70;8.95;;;;;;;-0.96;99.20;100495.25;5018305;28;20046;-87
2024/01/22 02:56:49;;;;;;;15.35;8.23;;;;;;;-0.95;98.93;100492.59;5046810;28;20040;-87
2024/01/22 02:59:18;;;;;;;16.98;8.93;;;;;;;-0.93;98.91;100489.94;5007529;28;20088;-88
2024/01/22 03:01:45;;;;;;;22.58;12.05;;;;;;;-0.96;99.29;100487.44;5049586;28;20041;-86
2024/01/22 03:04:12;;;;;;;21.15;10.88;;;;;;;-0.99;99.50;100485.78;5030613;28;20065;-87
2024/01/22 03:06:39;;;;;;;22.00;11.20;;;;;;;-0.99;99.69;100475.34;5055620;28;20049;-87
2024/01/22 03:09:06;;;;;;;16.40;10.13;;;;;;;-0.97;99.61;100472.69;5014633;28;20048;-87
2024/01/22 03:11:33;;;;;;;20.00;10.93;;;;;;;-1.03;99.98;100462.44;5035505;28;20519;-86
2024/01/22 03:14:00;;;;;;;20.17;10.57;;;;;;;-0.99;99.56;100454.50;5023560;28;20485;-87
2024/01/22 03:16:27;;;;;;;21.23;10.95;;;;;;;-0.97;99.59;100459.66;5050480;28;20468;-87
2024/01/22 03:18:54;;;;;;;13.52;7.50;;;;;;;-0.95;99.31;100457.84;5045266;28;20069;-87
2024/01/22 03:21:21;;;;;;;14.88;7.88;;;;;;;-0.91;99.18;100467.28;4998003;28;20127;-87
2024/01/22 03:23:48;;;;;;;23.23;10.77;;;;;;;-0.90;99.41;100461.16;5018160;28;20065;-86
2024/01/22 03:26:19;;;;;;;22.75;11.27;;;;;;;-0.88;99.45;100454.16;5033360;28;20057;-88
2024/01/22 03:28:49;;;;;;;20.60;12.43;;;;;;;-0.83;99.74;100456.63;5017665;28;20492;-87
2024/01/22 03:31:26;;;;;;;20.77;11.35;;;;;;;-0.86;99.97;100462.78;5016246;28;20045;-87
2024/01/22 03:33:53;;;;;;;20.63;11.73;;;;;;;-0.85;99.59;100451.44;5008304;28;20048;-87
2024/01/22 03:36:21;;;;;;;24.77;12.23;;;;;;;-0.84;99.74;100461.00;5025896;28;20463;-87
2024/01/22 03:38:47;;;;;;;21.48;11.80;;;;;;;-0.86;100.00;100454.13;5030037;28;20048;-87
2024/01/22 03:41:14;;;;;;;28.05;13.70;;;;;;;-0.86;100.00;100454.13;5006101;28;20733;-87
2024/01/22 03:43:42;;;;;;;26.85;12.90;;;;;;;-0.85;99.99;100445.38;5033251;28;20470;-87
2024/01/22 03:46:13;;;;;;;23.80;13.20;;;;;;;-0.86;99.85;100449.75;5023531;28;21277;-87
2024/01/22 03:48:40;;;;;;;28.58;14.25;;;;;;;-0.83;100.00;100441.81;5007980;28;20048;-86
2024/01/22 03:51:07;;;;;;;27.08;13.00;;;;;;;-0.85;100.00;100430.59;5023015;28;20077;-87
2024/01/22 03:53:34;;;;;;;26.40;13.85;;;;;;;-0.82;100.00;100430.47;5031621;28;20080;-87
2024/01/22 03:56:04;;;;;;;22.35;13.13;;;;;;;-0.82;100.00;100420.06;5033707;28;20538;-87
2024/01/22 03:58:32;;;;;;;21.42;12.23;;;;;;;-0.80;100.00;100420.03;5029870;28;20765;-87
2024/01/22 04:01:00;;;;;;;22.95;12.52;;;;;;;-0.80;100.00;100418.25;5021498;28;20049;-87
2024/01/22 04:03:27;;;;;;;20.52;11.35;;;;;;;-0.80;100.00;100407.81;5034463;28;20412;-87
2024/01/22 04:05:55;;;;;;;21.90;12.45;;;;;;;-0.79;100.00;100408.66;5022733;28;20049;-87
2024/01/22 04:08:21;;;;;;;20.20;12.50;;;;;;;-0.79;100.00;100406.94;5050008;28;20049;-87
2024/01/22 04:10:48;;;;;;;23.35;12.32;;;;;;;-0.79;100.00;100404.34;5021238;28;20045;-87
2024/01/22 04:13:15;;;;;;;27.65;13.48;;;;;;;-0.78;100.00;100400.81;5017770;28;20098;-86
2024/01/22 04:15:42;;;;;;;22.75;12.20;;;;;;;-0.77;100.00;100392.06;5004506;28;20073;-87
2024/01/22 04:18:08;;;;;;;23.92;13.07;;;;;;;-0.75;99.97;100405.06;5014126;28;20044;-87
2024/01/22 04:20:35;;;;;;;25.77;13.30;;;;;;;-0.75;100.00;100399.84;5029303;28;20718;-87
2024/01/22 04:23:02;;;;;;;28.23;12.93;;;;;;;-0.73;100.00;100401.50;5034034;28;20050;-87
2024/01/22 04:25:29;;;;;;;20.20;11.80;;;;;;;-0.73;99.94;100393.69;5042203;28;20053;-87
2024/01/22 04:27:57;;;;;;;25.90;13.02;;;;;;;-0.73;100.00;100392.84;5044494;28;20049;-87
2024/01/22 04:30:24;;;;;;;21.45;11.82;;;;;;;-0.71;100.00;100393.66;5016594;28;20059;-87
2024/01/22 04:32:51;;;;;;;23.65;12.45;;;;;;;-0.70;100.00;100382.31;5047173;28;20412;-87
2024/01/22 04:35:18;;;;;;;24.05;12.50;;;;;;;-0.71;100.00;100375.41;5035237;28;20044;-87
2024/01/22 04:37:44;;;;;;;21.33;12.57;;;;;;;-0.69;100.00;100384.00;5036328;28;20786;-87
2024/01/22 04:40:13;;;;;;;21.52;12.27;;;;;;;-0.69;100.00;100386.59;5016606;28;20045;-87
2024/01/22 04:42:44;;;;;;;31.10;17.17;;;;;;;-0.69;100.00;100377.06;5015251;28;20401;-87
2024/01/22 04:45:11;;;;;;;26.40;13.32;;;;;;;-0.71;100.00;100365.81;5044604;28;20124;-86
2024/01/22 04:47:37;;;;;;;34.22;18.00;;;;;;;-0.70;100.00;100364.06;5036390;28;20132;-87
2024/01/22 04:50:05;;;;;;;29.98;16.67;;;;;;;-0.71;100.00;100355.38;5014520;28;20045;-87
2024/01/22 04:52:32;;;;;;;29.05;16.52;;;;;;;-0.71;100.00;100360.59;5026173;28;20049;-87
2024/01/22 04:54:58;;;;;;;27.02;14.40;;;;;;;-0.70;100.00;100351.84;5004818;28;20110;-86
2024/01/22 04:57:38;;;;;;;23.27;13.30;;;;;;;-0.69;100.00;100348.38;5021137;28;20049;-87
2024/01/22 05:00:06;;;;;;;22.38;12.65;;;;;;;-0.67;100.00;100353.50;5031262;28;20052;-87
2024/01/22 05:02:33;;;;;;;23.13;12.82;;;;;;;-0.67;100.00;100341.31;5021207;28;20038;-87
2024/01/22 05:05:01;;;;;;;28.98;14.48;;;;;;;-0.65;100.00;100338.66;5044596;28;20488;-87
2024/01/22 05:07:29;;;;;;;24.67;13.88;;;;;;;-0.64;100.00;100334.31;5019565;28;20050;-87
2024/01/22 05:09:58;;;;;;;25.23;12.80;;;;;;;-0.63;100.00;100322.97;5021957;28;20053;-87
2024/01/22 05:12:25;;;;;;;26.17;13.88;;;;;;;-0.63;100.00;100326.44;5064776;28;20450;-88
2024/01/22 05:14:51;;;;;;;28.92;12.45;;;;;;;-0.60;100.00;100315.88;5010325;28;20037;-87
2024/01/22 05:17:18;;;;;;;25.80;12.95;;;;;;;-0.60;100.00;100310.69;5021289;28;20441;-87
2024/01/22 05:19:45;;;;;;;21.13;12.80;;;;;;;-0.58;100.00;100306.25;5037967;28;20044;-87
2024/01/22 05:22:12;;;;;;;22.05;11.45;;;;;;;-0.56;100.00;100298.38;5036945;28;20523;-87
2024/01/22 05:24:39;;;;;;;21.02;11.18;;;;;;;-0.56;100.00;100285.31;5057731;28;20772;-87
2024/01/22 05:27:07;;;;;;;20.98;11.63;;;;;;;-0.56;100.00;100275.75;5004190;28;20520;-87
2024/01/22 05:29:34;;;;;;;24.15;12.65;;;;;;;-0.53;100.00;100285.25;5009389;28;20045;-87
2024/01/22 05:32:02;;;;;;;23.95;12.38;;;;;;;-0.52;100.00;100284.31;5025354;28;20049;-88
2024/01/22 05:34:29;;;;;;;21.80;11.80;;;;;;;-0.52;100.00;100289.53;5037305;28;20041;-87
2024/01/22 05:36:56;;;;;;;14.77;8.88;;;;;;;-0.54;100.00;100276.53;5035086;28;20649;-87
2024/01/22 05:39:23;;;;;;;22.85;12.75;;;;;;;-0.50;100.00;100278.13;4994133;28;20063;-86
2024/01/22 05:41:49;;;;;;;21.30;12.75;;;;;;;-0.51;100.00;100276.44;5030715;28;20049;-86
2024/01/22 05:44:16;;;;;;;19.60;12.27;;;;;;;-0.49;100.00;100272.00;5043636;28;20097;-87
2024/01/22 05:46:43;;;;;;;23.05;11.55;;;;;;;-0.50;100.00;100265.09;5042726;28;20049;-87
2024/01/22 05:49:10;;;;;;;22.17;11.73;;;;;;;-0.46;100.00;100260.59;5033463;28;21277;-86
2024/01/22 05:51:37;;;;;;;23.02;12.10;;;;;;;-0.46;100.00;100250.16;5044134;28;20065;-87
2024/01/22 05:54:04;;;;;;;19.02;10.95;;;;;;;-0.45;100.00;100237.09;5021866;28;20492;-87
2024/01/22 05:56:32;;;;;;;18.92;10.57;;;;;;;-0.42;100.00;100240.50;5036620;28;20385;-86
2024/01/22 05:58:59;;;;;;;19.30;10.25;;;;;;;-0.40;100.00;100243.91;5056427;28;20048;-87
2024/01/22 06:01:31;;;;;;;15.10;8.50;;;;;;;-0.38;100.00;100231.63;5052521;28;20623;-87
2024/01/22 06:03:58;;;;;;;18.92;9.23;;;;;;;-0.36;100.00;100237.66;4997940;28;20045;-87
2024/01/22 06:06:25;;;;;;;15.48;8.40;;;;;;;-0.35;100.00;100227.16;5026843;28;20408;-87
2024/01/22 06:08:52;;;;;;;14.85;8.73;;;;;;;-0.34;100.00;100231.47;5031787;28;20045;-87
2024/01/22 06:11:19;;;;;;;16.83;8.02;;;;;;;-0.34;100.00;100234.06;5017515;28;20401;-87
2024/01/22 06:13:46;;;;;;;14.30;8.32;;;;;;;-0.32;100.00;100234.03;5025453;28;20045;-87
2024/01/22 06:16:27;;;;;;;12.38;7.00;;;;;;;-0.31;100.00;100244.38;5045207;28;20396;-87
2024/01/22 06:18:53;;;;;;;12.20;6.80;;;;;;;-0.30;100.00;100233.06;5036433;28;20037;-87
2024/01/22 06:21:20;;;;;;;9.75;6.05;;;;;;;-0.28;100.00;100233.88;5020428;28;20040;-87
2024/01/22 06:23:48;;;;;;;12.05;6.13;;;;;;;-0.30;100.00;100222.63;4992359;28;20451;-86
2024/01/22 06:26:17;;;;;;;10.27;5.20;;;;;;;-0.25;100.00;100204.19;5010241;28;20056;-87
2024/01/22 06:28:43;;;;;;;8.70;4.25;;;;;;;-0.25;100.00;100201.59;5018596;28;20037;-87
2024/01/22 06:31:10;;;;;;;6.38;3.97;;;;;;;-0.23;100.00;100199.75;5024862;28;20072;-87
2024/01/22 06:33:37;;;;;;;6.60;3.65;;;;;;;-0.22;100.00;100196.25;5054734;28;20041;-85
2024/01/22 06:36:06;;;;;;;7.32;3.30;;;;;;;-0.19;100.00;100190.06;5033225;28;20049;-86
2024/01/22 06:38:34;;;;;;;6.03;3.80;;;;;;;-0.20;100.00;100184.00;5002657;28;20041;-86
2024/01/22 06:41:00;;;;;;;8.88;4.45;;;;;;;-0.17;100.00;100185.63;5022324;28;20056;-86
2024/01/22 06:43:27;;;;;;;11.15;5.88;;;;;;;-0.16;100.00;100182.09;5045422;28;20045;-86
2024/01/22 06:45:54;;;;;;;11.93;7.10;;;;;;;-0.15;100.00;100187.28;5050968;28;20057;-86
2024/01/22 06:48:21;;;;;;;15.73;7.13;;;;;;;-0.14;100.00;100172.44;5026136;28;20135;-86
2024/01/22 06:50:48;;;;;;;15.75;7.18;;;;;;;-0.13;100.00;100171.53;5032863;28;20048;-86
2024/01/22 06:53:15;;;;;;;16.80;7.97;;;;;;;-0.14;100.00;100165.47;5053007;28;20546;-85
2024/01/22 06:55:41;;;;;;;11.45;6.88;;;;;;;-0.12;100.00;100163.66;5051356;28;20041;-86
2024/01/22 06:58:08;;;;;;;12.70;6.55;;;;;;;-0.10;100.00;100164.44;5045989;28;20080;-86
2024/01/22 07:00:36;;;;;;;13.70;6.78;;;;;;;-0.09;100.00;100167.91;5032421;28;20049;-86
2024/01/22 07:03:04;;;;;;;12.65;7.55;;;;;;;-0.08;100.00;100161.75;5009617;28;20645;-86
2024/01/22 07:05:33;;;;;;;16.35;8.73;;;;;;;-0.06;100.00;100157.34;5014842;28;20055;-86
2024/01/22 07:08:00;;;;;;;13.63;7.00;;;;;;;-0.05;100.00;100164.25;5027332;28;20124;-85
2024/01/22 07:10:27;;;;;;;12.93;5.68;;;;;;;-0.04;100.00;100158.97;5047828;28;20049;-86
2024/01/22 07:12:53;;;;;;;8.75;5.30;;;;;;;-0.01;100.00;100155.38;5068098;28;20447;-85
2024/01/22 07:15:20;;;;;;;9.30;5.07;;;;;;;0.02;100.00;100142.22;5026353;28;20112;-85
2024/01/22 07:17:47;;;;;;;8.88;4.03;;;;;;;0.04;100.00;100142.16;5025104;28;20060;-85
2024/01/22 07:20:15;;;;;;;7.10;3.90;;;;;;;0.06;100.00;100133.34;5032483;28;20047;-86
2024/01/22 07:22:43;;;;;;;9.52;4.35;;;;;;;0.09;100.00;100132.38;5020736;28;20065;-86
2024/01/22 07:25:15;;;;;;;9.50;4.97;;;;;;;0.10;100.00;100134.06;5018494;28;20507;-86
2024/01/22 07:27:44;;;;;;;9.40;5.35;;;;;;;0.11;100.00;100126.19;5052773;28;20425;-86
2024/01/22 07:30:12;;;;;;;9.52;5.05;;;;;;;0.12;100.00;100117.44;5000212;28;20642;-84
2024/01/22 07:32:41;;;;;;;10.10;4.25;;;;;;;0.13;100.00;100103.47;5036615;28;20049;-87
2024/01/22 07:35:30;;;;;;;;;;;;;;;;;;;;;
2024/01/22 07:39:08;;;;;;;8.25;4.40;;;;;;;0.17;100.00;100106.81;4829009;28;20091;-87
2024/01/22 07:41:36;;;;;;;9.98;4.53;;;;;;;0.20;100.00;100098.81;5018402;28;20048;-87
2024/01/22 07:44:04;;;;;;;8.50;3.90;;;;;;;0.24;100.00;100097.81;5045320;28;20124;-86
2024/01/22 07:46:31;;;;;;;7.53;4.22;;;;;;;0.24;100.00;100095.19;5050225;28;20046;-87
2024/01/22 07:48:57;;;;;;;7.38;4.30;;;;;;;0.26;100.00;100098.59;5048114;28;20128;-87
2024/01/22 07:51:24;;;;;;;8.45;4.53;;;;;;;0.28;100.00;100103.72;5016713;28;20052;-86
2024/01/22 07:53:51;;;;;;;5.30;3.70;;;;;;;0.29;100.00;100101.06;5016582;28;20045;-86
2024/01/22 07:56:18;;;;;;;7.47;3.95;;;;;;;0.30;100.00;100110.59;4992011;28;20042;-86
2024/01/22 07:58:45;;;;;;;10.48;5.20;;;;;;;0.33;100.00;100112.22;5044147;28;20071;-85
2024/01/22 08:01:12;;;;;;;9.00;4.45;;;;;;;0.33;100.00;100107.88;5030487;28;20547;-86
2024/01/22 08:03:39;;;;;;;9.52;5.43;;;;;;;0.31;100.00;100108.84;5020755;28;20044;-87
2024/01/22 08:06:06;;;;;;;11.52;5.50;;;;;;;0.32;100.00;100113.16;5031720;28;20132;-87
2024/01/22 08:08:33;;;;;;;11.73;5.18;;;;;;;0.32;100.00;100114.00;5024288;28;20045;-87
2024/01/22 08:11:00;;;;;;;9.23;5.03;;;;;;;0.34;100.00;100113.94;5015073;28;20037;-87
2024/01/22 08:13:26;;;;;;;10.10;5.50;;;;;;;0.35;100.00;100115.63;5052456;28;20045;-88
2024/01/22 08:15:53;;;;;;;13.70;7.45;;;;;;;0.36;100.00;100112.13;5033563;28;20041;-87
2024/01/22 08:18:20;;;;;;;22.77;10.90;;;;;;;0.37;100.00;100113.81;5025715;28;20624;-87
2024/01/22 08:20:47;;;;;;;19.92;11.13;;;;;;;0.38;100.00;100108.53;5009422;28;20037;-88
2024/01/22 08:23:14;;;;;;;20.75;9.88;;;;;;;0.41;100.00;100104.94;5052906;28;20041;-87
2024/01/22 08:25:41;;;;;;;16.52;9.77;;;;;;;0.40;100.00;100096.22;5021435;28;20049;-87
2024/01/22 08:28:08;;;;;;;17.42;9.45;;;;;;;0.43;100.00;100090.03;5032206;28;20049;-87
2024/01/22 08:30:34;;;;;;;18.02;10.35;;;;;;;0.42;100.00;100101.41;5013836;28;20041;-87
2024/01/22 08:33:01;;;;;;;20.75;10.43;;;;;;;0.43;100.00;100092.63;5047745;28;20528;-86
2024/01/22 08:35:28;;;;;;;19.85;10.43;;;;;;;0.43;100.00;100085.69;5031463;28;20548;-87
2024/01/22 08:37:55;;;;;;;24.38;11.85;;;;;;;0.46;100.00;100089.03;5037143;28;20049;-87
2024/01/22 08:40:22;;;;;;;23.08;12.23;;;;;;;0.46;100.00;100079.47;5033998;28;20052;-87
2024/01/22 08:42:55;;;;;;;31.95;15.82;;;;;;;0.46;100.00;100071.63;5048000;28;20524;-86
2024/01/22 08:45:22;;;;;;;38.60;19.05;;;;;;;0.48;100.00;100074.16;5015205;28;20073;-87
2024/01/22 08:47:49;;;;;;;27.35;13.45;;;;;;;0.46;100.00;100082.09;5035314;28;20756;-84
2024/01/22 08:50:23;;;;;;;25.38;13.18;;;;;;;0.48;100.00;100089.84;5037932;28;20052;-83
2024/01/22 08:52:52;;;;;;;30.25;13.05;;;;;;;0.46;100.00;100089.91;5027723;28;20044;-83
2024/01/22 08:55:22;;;;;;;24.02;11.75;;;;;;;0.47;100.00;100107.28;5024704;28;20056;-87
2024/01/22 08:57:49;;;;;;;32.30;12.75;;;;;;;0.46;100.00;100100.38;5022690;28;20136;-88
2024/01/22 09:00:16;;;;;;;30.05;14.75;;;;;;;0.49;100.00;100096.78;5003180;28;20132;-88
2024/01/22 09:02:43;;;;;;;25.52;13.93;;;;;;;0.48;100.00;100102.91;5038853;28;20049;-88
2024/01/22 09:05:11;;;;;;;26.23;13.73;;;;;;;0.49;100.00;100115.91;5035478;28;21299;-88
2024/01/22 09:07:38;;;;;;;28.17;15.05;;;;;;;0.49;100.00;100113.28;5029311;28;20444;-87
2024/01/22 09:10:07;;;;;;;27.60;14.27;;;;;;;0.49;100.00;100117.69;5031390;28;20052;-87
2024/01/22 09:12:34;;;;;;;29.05;16.05;;;;;;;0.50;100.00;100124.59;5040146;28;20555;-88
2024/01/22 09:15:05;;;;;;;31.65;16.27;;;;;;;0.50;100.00;100129.81;5018561;28;20053;-88
2024/01/22 09:17:32;;;;;;;25.40;13.05;;;;;;;0.51;100.00;100129.75;5020388;28;20041;-87
2024/01/22 09:19:59;;;;;;;34.55;15.30;;;;;;;0.52;100.00;100120.16;5058483;28;20501;-88
2024/01/22 09:22:26;;;;;;;29.88;13.73;;;;;;;0.53;100.00;100124.44;5012395;28;20416;-89
2024/01/22 09:24:53;;;;;;;26.45;13.02;;;;;;;0.54;100.00;100113.09;5029325;28;20085;-88
2024/01/22 09:27:20;;;;;;;25.25;12.93;;;;;;;0.55;100.00;100105.19;5022496;28;20060;-87
2024/01/22 09:29:47;;;;;;;27.65;14.50;;;;;;;0.57;100.00;100105.13;5023629;28;20045;-86
2024/01/22 09:32:15;;;;;;;26.65;14.02;;;;;;;0.56;100.00;100096.44;5054866;28;20053;-86
2024/01/22 09:34:43;;;;;;;28.88;14.77;;;;;;;0.58;100.00;100098.97;5014413;28;20505;-88
2024/01/22 09:37:11;;;;;;;48.22;21.58;;;;;;;0.60;100.00;100107.59;5023530;28;20048;-88
2024/01/22 09:39:38;;;;;;;49.08;22.13;;;;;;;0.60;100.00;100100.59;5002763;28;20504;-88
2024/01/22 09:42:06;;;;;;;49.28;19.67;;;;;;;0.62;100.00;100101.41;5047454;28;20057;-88
2024/01/22 09:44:34;;;;;;;39.80;18.75;;;;;;;0.64;100.00;100096.97;5003149;28;20041;-87
2024/01/22 09:47:02;;;;;;;36.88;18.60;;;;;;;0.67;100.00;100097.75;5012775;28;20033;-89
2024/01/22 09:49:29;;;;;;;44.33;20.60;;;;;;;0.67;100.00;100093.38;5014405;28;20049;-88
2024/01/22 09:51:56;;;;;;;42.40;19.52;;;;;;;0.69;100.00;100085.44;5021771;28;20064;-87
2024/01/22 09:54:28;;;;;;;39.90;19.05;;;;;;;0.70;100.00;100087.16;5000825;28;20150;-89
2024/01/22 09:56:55;;;;;;;36.80;17.95;;;;;;;0.68;100.00;100075.91;5006898;28;20758;-88
2024/01/22 09:59:24;;;;;;;40.05;19.20;;;;;;;0.70;100.00;100077.53;5040309;28;20041;-89
2024/01/22 10:01:52;;;;;;;48.55;20.42;;;;;;;0.72;100.00;100074.88;5038446;28;20381;-89
2024/01/22 10:04:19;;;;;;;40.92;18.65;;;;;;;0.71;100.00;100066.16;5032086;28;20045;-89
2024/01/22 10:06:48;;;;;;;34.97;17.50;;;;;;;0.71;100.00;100063.53;5007585;28;20045;-88
2024/01/22 10:09:15;;;;;;;49.33;20.75;;;;;;;0.72;100.00;100062.66;5026554;28;20700;-89
2024/01/22 10:11:43;;;;;;;41.30;18.35;;;;;;;0.73;100.00;100053.88;5034081;28;20041;-89
2024/01/22 10:14:10;;;;;;;39.58;18.30;;;;;;;0.75;100.00;100059.06;5020224;28;20598;-88
2024/01/22 10:16:37;;;;;;;51.15;21.15;;;;;;;0.75;100.00;100057.28;5044226;28;20461;-89
2024/01/22 10:19:08;;;;;;;49.58;21.15;;;;;;;0.77;100.00;100042.38;5024823;28;20361;-89
2024/01/22 10:21:36;;;;;;;52.97;21.35;;;;;;;0.77;100.00;100033.69;5025092;28;20060;-90
2024/01/22 10:24:08;;;;;;;60.42;20.75;;;;;;;0.78;100.00;100038.84;5033743;28;20068;-89
2024/01/22 10:26:35;;;;;;;37.83;14.45;;;;;;;0.81;100.00;100045.69;5030857;28;20098;-90
2024/01/22 10:29:14;;;;;;;26.95;13.00;;;;;;;0.80;100.00;100044.00;5036618;28;20045;-90
2024/01/22 10:31:57;;;;;;;28.67;11.93;;;;;;;0.82;100.00;100034.34;5020562;28;20046;-90
2024/01/22 10:34:28;;;;;;;20.48;11.02;;;;;;;0.85;100.00;100027.19;5035602;28;20453;-87
2024/01/22 10:37:12;;;;;;;25.50;12.55;;;;;;;0.85;100.00;100027.19;5058664;28;20107;-89
2024/01/22 10:39:42;;;;;;;;;;;;;;;0.85;100.00;100026.34;5044189;28;20060;-89
2024/01/22 10:42:10;;;;;;;24.20;10.77;;;;;;;0.89;100.00;100027.06;5019377;28;19925;-90
2024/01/22 10:44:38;;;;;;;30.15;13.10;;;;;;;0.91;100.00;100025.22;5056614;28;20538;-89
2024/01/22 10:47:06;;;;;;;26.85;11.00;;;;;;;0.90;100.00;100024.38;5043409;28;20037;-89
2024/01/22 10:49:36;;;;;;;31.58;12.50;;;;;;;0.91;100.00;100017.38;5040813;28;20049;-89
2024/01/22 10:52:04;;;;;;;28.77;12.30;;;;;;;0.91;100.00;100012.16;5018037;28;20072;-89
2024/01/22 10:54:34;;;;;;;35.15;13.57;;;;;;;0.92;100.00;100019.09;5036035;28;20048;-88
2024/01/22 10:57:05;;;;;;;39.38;16.65;;;;;;;0.93;100.00;100015.53;5065841;28;20377;-88
2024/01/22 10:59:38;;;;;;;37.55;15.15;;;;;;;0.94;100.00;100014.63;5038953;28;20384;-89
2024/01/22 11:02:06;;;;;;;44.80;17.40;;;;;;;0.94;100.00;100009.38;5028683;28;20517;-89
2024/01/22 11:04:42;;;;;;;35.75;16.15;;;;;;;0.95;100.00;99987.56;5043402;28;20076;-88
2024/01/22 11:07:10;;;;;;;41.92;18.58;;;;;;;0.94;100.00;99981.50;5037471;28;20128;-89
2024/01/22 11:09:39;;;;;;;50.92;18.70;;;;;;;0.96;100.00;99982.25;5030498;28;20055;-88
2024/01/22 11:12:09;;;;;;;32.08;15.25;;;;;;;0.97;100.00;99978.75;4991642;28;20053;-89
2024/01/22 11:14:37;;;;;;;44.38;18.75;;;;;;;0.97;100.00;99965.66;5039507;28;20053;-88